Time;durP1;ratioP1;P1;durP2;ratioP2;P2;SDS_P1;SDS_P2;PMS_P1;PMS_P2;Temp;Humidity;BMP_temperature;BMP_pressure;BME280_temperature;BME280_humidity;BME280_pressure;Samples;Min_cycle;Max_cycle;Signal;HPM_P1;HPM_P2
2023/03/20 00:01:28;;;;;;;31.15;12.60;;;9.20;78.10;;;;;;6083468;23;20545;-81
2023/03/20 00:03:57;;;;;;;30.92;12.70;;;9.10;78.20;;;;;;6056076;23;20077;-81
2023/03/20 00:06:32;;;;;;;32.90;13.82;;;9.10;78.50;;;;;;6040693;23;20030;-81
2023/03/20 00:09:01;;;;;;;36.55;14.77;;;8.90;78.50;;;;;;6084408;23;20057;-81
2023/03/20 00:11:41;;;;;;;31.17;13.57;;;8.90;78.50;;;;;;6084589;23;20049;-80
2023/03/20 00:14:12;;;;;;;33.40;14.20;;;9.10;78.60;;;;;;6061132;23;20483;-81
2023/03/20 00:16:44;;;;;;;33.08;13.50;;;9.00;78.60;;;;;;6082850;23;20052;-80
2023/03/20 00:19:22;;;;;;;31.77;13.00;;;9.10;78.70;;;;;;6073034;23;20026;-81
2023/03/20 00:21:51;;;;;;;34.25;13.90;;;8.70;78.80;;;;;;6059641;23;20489;-81
2023/03/20 00:24:19;;;;;;;45.55;18.98;;;9.00;79.10;;;;;;6040291;23;20533;-81
2023/03/20 00:26:48;;;;;;;27.23;12.02;;;8.90;79.10;;;;;;6088043;23;20511;-81
2023/03/20 00:29:30;;;;;;;24.30;11.60;;;8.70;78.90;;;;;;6072368;23;20026;-80
2023/03/20 00:31:58;;;;;;;20.25;11.05;;;8.90;79.10;;;;;;6038885;23;20063;-81
2023/03/20 00:34:28;;;;;;;23.30;11.43;;;8.80;79.40;;;;;;6088137;23;20054;-81
2023/03/20 00:36:56;;;;;;;21.42;10.13;;;8.80;79.40;;;;;;6061473;23;20097;-81
2023/03/20 00:39:24;;;;;;;21.55;9.93;;;8.80;79.50;;;;;;6063343;23;20026;-81
2023/03/20 00:42:04;;;;;;;20.75;9.70;;;8.90;79.50;;;;;;6060353;23;20019;-81
2023/03/20 00:44:43;;;;;;;18.40;9.65;;;8.80;79.30;;;;;;6059872;23;20110;-81
2023/03/20 00:47:16;;;;;;;23.85;9.60;;;9.10;79.60;;;;;;6058719;23;20440;-81
2023/03/20 00:49:47;;;;;;;24.65;9.30;;;8.90;79.70;;;;;;6060452;23;20018;-80
2023/03/20 00:52:16;;;;;;;20.63;9.30;;;8.70;79.80;;;;;;6038734;23;20090;-81
2023/03/20 00:54:44;;;;;;;22.33;10.15;;;8.80;79.90;;;;;;6057247;23;20074;-81
2023/03/20 00:57:31;;;;;;;24.73;10.65;;;8.90;79.90;;;;;;6056352;23;20023;-80
2023/03/20 01:00:04;;;;;;;26.98;11.20;;;8.80;80.00;;;;;;6089279;23;20442;-81
2023/03/20 01:02:32;;;;;;;26.35;12.80;;;8.70;80.10;;;;;;6063173;23;20026;-80
2023/03/20 01:05:01;;;;;;;25.60;11.90;;;8.80;79.90;;;;;;6037585;23;20033;-81
2023/03/20 01:07:28;;;;;;;23.75;11.65;;;8.80;79.80;;;;;;6061318;23;20026;-81
2023/03/20 01:09:58;;;;;;;19.55;9.95;;;8.80;79.70;;;;;;6061012;23;20033;-81
2023/03/20 01:12:27;;;;;;;20.95;9.27;;;8.80;79.90;;;;;;6064711;23;20026;-81
2023/03/20 01:14:56;;;;;;;18.85;8.55;;;9.00;80.10;;;;;;6061629;23;20397;-81
2023/03/20 01:17:28;;;;;;;19.10;9.98;;;8.80;80.20;;;;;;6061999;23;20022;-81
2023/03/20 01:19:55;;;;;;;19.15;9.57;;;8.80;79.90;;;;;;6068714;23;20026;-81
2023/03/20 01:22:23;;;;;;;20.85;9.43;;;8.80;79.90;;;;;;6064295;23;20085;-81
2023/03/20 01:24:57;;;;;;;20.85;8.95;;;8.40;79.40;;;;;;6041856;23;20139;-81
2023/03/20 01:27:27;;;;;;;19.83;9.48;;;8.80;79.80;;;;;;6042072;23;20601;-81
2023/03/20 01:29:54;;;;;;;22.08;10.27;;;8.70;80.10;;;;;;6059950;23;20137;-80
2023/03/20 01:32:22;;;;;;;19.92;9.50;;;8.70;79.90;;;;;;6086295;23;20137;-81
2023/03/20 01:34:51;;;;;;;19.92;10.63;;;8.70;80.00;;;;;;6062591;23;20089;-81
2023/03/20 01:37:27;;;;;;;18.83;9.02;;;8.80;80.70;;;;;;6063757;23;20492;-82
2023/03/20 01:39:59;;;;;;;26.25;11.48;;;8.80;80.00;;;;;;6063993;23;20106;-81
2023/03/20 01:42:31;;;;;;;20.70;9.63;;;8.80;80.10;;;;;;6066815;23;20022;-81
2023/03/20 01:44:58;;;;;;;25.33;9.60;;;8.90;80.20;;;;;;6061809;23;20027;-81
2023/03/20 01:47:28;;;;;;;23.67;10.40;;;8.80;80.60;;;;;;6061996;23;20030;-81
2023/03/20 01:50:17;;;;;;;24.27;11.60;;;8.80;81.00;;;;;;6061838;23;20034;-81
2023/03/20 01:52:52;;;;;;;20.52;10.02;;;8.70;80.30;;;;;;6056585;23;20031;-80
2023/03/20 01:55:21;;;;;;;22.83;12.75;;;8.70;80.50;;;;;;6062852;23;20026;-82
2023/03/20 01:57:57;;;;;;;24.08;11.40;;;8.70;80.50;;;;;;6060787;23;20054;-80
2023/03/20 02:00:25;;;;;;;21.48;10.93;;;8.80;80.70;;;;;;6042740;23;20425;-81
2023/03/20 02:02:55;;;;;;;22.95;11.23;;;8.80;80.70;;;;;;6084443;23;20559;-81
2023/03/20 02:05:49;;;;;;;21.23;10.38;;;8.80;80.90;;;;;;6084404;23;20026;-81
2023/03/20 02:08:20;;;;;;;17.45;8.57;;;8.70;81.10;;;;;;6037901;23;20026;-80
2023/03/20 02:10:49;;;;;;;20.63;9.13;;;8.70;81.20;;;;;;6062133;23;20458;-81
2023/03/20 02:13:25;;;;;;;20.17;8.70;;;8.70;81.00;;;;;;6034311;23;20033;-81
2023/03/20 02:16:02;;;;;;;20.08;8.82;;;8.80;81.10;;;;;;6060067;23;20031;-81
2023/03/20 02:18:50;;;;;;;19.80;7.90;;;8.70;81.10;;;;;;6058489;23;20037;-81
2023/03/20 02:21:57;;;;;;;14.80;7.90;;;8.70;81.20;;;;;;6060517;23;20022;-81
2023/03/20 02:24:40;;;;;;;20.83;8.57;;;8.70;81.40;;;;;;5918560;24;20115;-81
2023/03/20 02:27:37;;;;;;;14.15;7.70;;;8.70;81.30;;;;;;5919257;24;20143;-81
2023/03/20 02:30:42;;;;;;;17.85;8.00;;;8.70;81.20;;;;;;6032021;23;20030;-81
2023/03/20 02:33:20;;;;;;;17.50;7.05;;;8.50;81.20;;;;;;6064617;23;20064;-82
2023/03/20 02:36:00;;;;;;;14.90;8.00;;;9.00;81.60;;;;;;6062455;23;20466;-81
2023/03/20 02:38:33;;;;;;;19.48;8.63;;;8.60;81.20;;;;;;6064085;23;20022;-81
2023/03/20 02:41:10;;;;;;;17.63;8.45;;;8.60;81.30;;;;;;6059522;23;20379;-81
2023/03/20 02:44:02;;;;;;;16.25;8.05;;;8.70;81.30;;;;;;6060125;23;20441;-80
2023/03/20 02:47:02;;;;;;;17.17;7.47;;;8.50;81.20;;;;;;6089552;23;20050;-81
2023/03/20 02:49:35;;;;;;;22.00;8.30;;;8.60;81.20;;;;;;6037858;23;20033;-81
2023/03/20 02:52:15;;;;;;;21.08;8.10;;;8.80;81.40;;;;;;6064568;23;20069;-81
2023/03/20 02:55:09;;;;;;;17.40;7.28;;;8.60;81.90;;;;;;6035928;23;20501;-81
2023/03/20 02:57:43;;;;;;;23.98;9.52;;;8.60;82.40;;;;;;6039960;23;20112;-81
2023/03/20 03:00:28;;;;;;;27.88;10.02;;;8.60;82.60;;;;;;6054739;23;20114;-81
2023/03/20 03:03:13;;;;;;;21.02;8.75;;;8.70;82.60;;;;;;6062188;23;20315;-81
2023/03/20 03:05:48;;;;;;;21.83;9.73;;;8.50;82.50;;;;;;6040465;23;20045;-81
2023/03/20 03:08:19;;;;;;;25.85;10.68;;;8.40;82.40;;;;;;6040054;23;20403;-81
2023/03/20 03:10:57;;;;;;;23.77;9.45;;;8.10;82.20;;;;;;6033977;23;20526;-81
2023/03/20 03:13:28;;;;;;;30.70;9.98;;;8.50;82.70;;;;;;6056654;23;20042;-81
2023/03/20 03:16:03;;;;;;;25.88;9.98;;;8.60;83.00;;;;;;6040650;23;20027;-81
2023/03/20 03:18:34;;;;;;;23.58;8.75;;;8.40;83.00;;;;;;6058375;23;20029;-81
2023/03/20 03:21:06;;;;;;;25.53;9.43;;;8.30;83.30;;;;;;6061254;23;20126;-81
2023/03/20 03:23:43;;;;;;;24.67;9.50;;;8.50;83.50;;;;;;6058834;23;20046;-81
2023/03/20 03:26:36;;;;;;;21.92;8.95;;;8.40;83.80;;;;;;6069677;23;20048;-81
2023/03/20 03:29:11;;;;;;;22.08;9.07;;;8.40;83.70;;;;;;6068771;23;20612;-81
2023/03/20 03:31:41;;;;;;;19.33;8.48;;;8.10;83.60;;;;;;6037496;23;20026;-81
2023/03/20 03:34:16;;;;;;;19.17;7.90;;;8.20;84.00;;;;;;6062215;23;20022;-81
2023/03/20 03:37:28;;;;;;;17.85;8.63;;;8.10;84.20;;;;;;6060722;23;20026;-81
2023/03/20 03:40:16;;;;;;;17.30;7.60;;;8.00;84.40;;;;;;5942315;24;20025;-81
2023/03/20 03:43:13;;;;;;;19.85;8.27;;;8.20;84.70;;;;;;5920938;24;20028;-80
2023/03/20 03:45:53;;;;;;;18.75;8.68;;;8.00;84.60;;;;;;6050607;23;20022;-81
2023/03/20 03:48:35;;;;;;;15.75;7.80;;;8.10;84.90;;;;;;6042290;23;20033;-81
2023/03/20 03:51:10;;;;;;;16.40;7.60;;;8.10;84.90;;;;;;6067413;23;20560;-80
2023/03/20 03:53:59;;;;;;;15.00;8.13;;;8.20;84.90;;;;;;6040143;23;20030;-81
2023/03/20 03:56:30;;;;;;;21.10;8.65;;;7.90;85.20;;;;;;6061562;23;20026;-81
2023/03/20 03:59:03;;;;;;;18.05;7.68;;;8.00;85.40;;;;;;6062391;23;20459;-80
2023/03/20 04:01:34;;;;;;;16.30;8.07;;;7.90;85.50;;;;;;6059261;23;20388;-80
2023/03/20 04:04:06;;;;;;;13.30;7.68;;;7.90;85.80;;;;;;6087397;23;20054;-81
2023/03/20 04:06:34;;;;;;;19.92;8.43;;;7.80;85.50;;;;;;6043939;23;20022;-81
2023/03/20 04:09:01;;;;;;;18.17;8.40;;;7.80;85.40;;;;;;6040754;23;20037;-81
2023/03/20 04:11:31;;;;;;;18.23;8.07;;;7.60;85.50;;;;;;6067747;23;20026;-80
2023/03/20 04:13:58;;;;;;;19.20;8.38;;;7.80;85.50;;;;;;6044310;23;20026;-80
2023/03/20 04:16:28;;;;;;;18.52;8.20;;;7.70;85.70;;;;;;6040722;23;20033;-80
2023/03/20 04:18:56;;;;;;;18.10;8.73;;;7.70;85.50;;;;;;6067940;23;20400;-80
2023/03/20 04:21:23;;;;;;;15.23;7.35;;;7.50;85.40;;;;;;6065046;23;20022;-82
2023/03/20 04:23:51;;;;;;;16.42;7.93;;;7.70;85.40;;;;;;6036161;23;20027;-80
2023/03/20 04:26:22;;;;;;;16.23;7.03;;;7.50;85.80;;;;;;6064223;23;20022;-80
2023/03/20 04:28:50;;;;;;;17.10;7.63;;;7.50;85.30;;;;;;6041746;23;20080;-80
2023/03/20 04:31:46;;;;;;;17.67;7.70;;;7.50;85.60;;;;;;6072464;23;20037;-81
2023/03/20 04:34:29;;;;;;;17.10;8.00;;;7.40;85.50;;;;;;6038677;23;20057;-80
2023/03/20 04:37:07;;;;;;;15.82;6.65;;;7.50;85.60;;;;;;6044072;23;20026;-80
2023/03/20 04:39:53;;;;;;;19.08;7.60;;;7.60;85.80;;;;;;6047807;23;20025;-81
2023/03/20 04:42:23;;;;;;;18.80;8.07;;;7.50;85.50;;;;;;6064045;23;20056;-80
2023/03/20 04:44:56;;;;;;;16.85;7.43;;;7.60;85.70;;;;;;6040262;23;20022;-80
2023/03/20 04:47:24;;;;;;;17.23;7.00;;;7.40;85.80;;;;;;6042251;23;20036;-80
2023/03/20 04:49:51;;;;;;;16.13;7.70;;;7.40;85.80;;;;;;6040476;23;20030;-80
2023/03/20 04:52:19;;;;;;;15.73;7.57;;;7.20;85.70;;;;;;6063483;23;20030;-80
2023/03/20 04:54:47;;;;;;;14.77;8.10;;;7.30;85.60;;;;;;6064567;23;20355;-80
2023/03/20 04:57:15;;;;;;;17.60;7.18;;;7.20;85.50;;;;;;6065924;23;20018;-81
2023/03/20 04:59:42;;;;;;;16.90;7.53;;;7.00;85.30;;;;;;6086457;23;20093;-81
2023/03/20 05:02:13;;;;;;;16.15;7.43;;;7.40;85.30;;;;;;6086266;23;20646;-80
2023/03/20 05:04:41;;;;;;;15.43;7.10;;;7.30;85.10;;;;;;6090820;23;20022;-81
2023/03/20 05:07:10;;;;;;;17.20;7.50;;;7.10;84.90;;;;;;6063473;23;20097;-81
2023/03/20 05:09:47;;;;;;;13.73;6.90;;;7.60;85.50;;;;;;6086905;23;20022;-81
2023/03/20 05:12:18;;;;;;;13.88;6.72;;;7.50;85.00;;;;;;6091406;23;20060;-81
2023/03/20 05:15:18;;;;;;;16.48;7.28;;;7.20;84.70;;;;;;6042372;23;20062;-80
2023/03/20 05:18:04;;;;;;;16.95;7.07;;;7.30;84.70;;;;;;6088399;23;20037;-80
2023/03/20 05:20:50;;;;;;;14.30;6.65;;;7.20;84.90;;;;;;6090818;23;20041;-80
2023/03/20 05:23:45;;;;;;;18.10;7.32;;;7.40;84.90;;;;;;6053603;23;20027;-81
2023/03/20 05:26:33;;;;;;;20.77;9.05;;;7.40;84.80;;;;;;6099305;23;20046;-81
2023/03/20 05:29:16;;;;;;;17.70;9.05;;;7.40;84.60;;;;;;6098687;23;20030;-81
2023/03/20 05:32:01;;;;;;;23.40;9.65;;;7.40;84.60;;;;;;6089050;23;20382;-81
2023/03/20 05:34:35;;;;;;;22.67;10.45;;;7.40;84.30;;;;;;6067746;23;20022;-81
2023/03/20 05:37:20;;;;;;;22.58;10.73;;;7.40;84.40;;;;;;6089674;23;20719;-81
2023/03/20 05:40:14;;;;;;;22.15;10.30;;;7.40;84.30;;;;;;6050488;23;20050;-80
2023/03/20 05:42:54;;;;;;;22.20;9.63;;;7.40;84.30;;;;;;6070065;23;20025;-81
2023/03/20 05:45:33;;;;;;;19.48;8.98;;;7.20;84.10;;;;;;6087587;23;20015;-81
2023/03/20 05:48:32;;;;;;;16.38;8.25;;;7.40;84.20;;;;;;6063294;23;20129;-81
2023/03/20 05:51:22;;;;;;;18.33;7.75;;;7.50;84.10;;;;;;6087017;23;20050;-80
2023/03/20 05:54:21;;;;;;;15.68;6.72;;;7.60;84.00;;;;;;6031420;23;20043;-80
2023/03/20 05:57:18;;;;;;;14.63;7.28;;;7.70;83.90;;;;;;6081634;23;20082;-81
2023/03/20 05:59:51;;;;;;;15.48;7.25;;;7.60;83.50;;;;;;6098122;23;20034;-81
2023/03/20 06:02:45;;;;;;;16.42;7.70;;;7.70;83.50;;;;;;6104765;23;20026;-81
2023/03/20 06:05:38;;;;;;;15.40;7.95;;;7.50;83.30;;;;;;6085851;23;20026;-82
2023/03/20 06:08:08;;;;;;;19.33;9.18;;;7.60;83.20;;;;;;6067933;23;20026;-82
2023/03/20 06:10:36;;;;;;;18.63;9.23;;;7.60;83.10;;;;;;6068866;23;20045;-80
2023/03/20 06:13:03;;;;;;;19.58;9.13;;;6.70;82.50;;;;;;6066122;23;20468;-82
2023/03/20 06:15:31;;;;;;;17.23;8.35;;;7.70;82.90;;;;;;6090593;23;20054;-82
2023/03/20 06:18:09;;;;;;;16.40;7.82;;;7.90;82.90;;;;;;6069254;23;20509;-81
2023/03/20 06:20:37;;;;;;;23.65;9.65;;;8.00;82.60;;;;;;6070920;23;20037;-81
2023/03/20 06:23:05;;;;;;;32.58;12.43;;;7.90;82.00;;;;;;6090110;23;20023;-81
2023/03/20 06:25:33;;;;;;;25.50;10.65;;;8.10;81.70;;;;;;6043820;23;20030;-81
2023/03/20 06:28:01;;;;;;;23.33;8.88;;;8.20;81.20;;;;;;6063295;23;20030;-81
2023/03/20 06:30:29;;;;;;;19.08;8.13;;;8.30;80.70;;;;;;6092811;23;20089;-81
2023/03/20 06:32:57;;;;;;;17.40;7.90;;;8.40;80.00;;;;;;6090430;23;20026;-81
2023/03/20 06:35:36;;;;;;;18.38;8.15;;;8.40;79.70;;;;;;6088904;23;20366;-82
2023/03/20 06:38:05;;;;;;;25.23;10.32;;;8.40;79.30;;;;;;6070029;23;20033;-81
2023/03/20 06:40:32;;;;;;;19.25;9.00;;;8.50;79.10;;;;;;6070855;23;20026;-81
2023/03/20 06:43:00;;;;;;;16.55;8.15;;;8.50;79.00;;;;;;6104287;23;20050;-82
2023/03/20 06:45:40;;;;;;;13.23;5.88;;;8.60;78.70;;;;;;6074154;23;20042;-82
2023/03/20 06:48:20;;;;;;;20.58;9.10;;;8.80;78.00;;;;;;6099769;23;20029;-81
2023/03/20 06:50:51;;;;;;;11.25;6.13;;;8.90;76.80;;;;;;6084564;23;20033;-82
2023/03/20 06:53:22;;;;;;;12.43;7.03;;;9.00;76.50;;;;;;6082441;23;20477;-82
2023/03/20 06:55:56;;;;;;;12.43;7.10;;;9.10;76.00;;;;;;6079536;23;20037;-81
2023/03/20 06:58:24;;;;;;;14.65;6.05;;;9.30;75.80;;;;;;6095380;23;20034;-81
2023/03/20 07:00:56;;;;;;;12.70;6.70;;;9.50;75.70;;;;;;6106933;23;20029;-82
2023/03/20 07:03:47;;;;;;;12.75;6.53;;;9.60;74.50;;;;;;5997738;23;20028;-82
2023/03/20 07:06:22;;;;;;;12.70;6.57;;;9.70;73.90;;;;;;5996613;23;20027;-81
2023/03/20 07:09:09;;;;;;;11.00;5.80;;;9.80;73.10;;;;;;6002252;23;20083;-82
2023/03/20 07:11:41;;;;;;;12.80;6.28;;;10.00;72.60;;;;;;5955612;23;20046;-82
2023/03/20 07:14:20;;;;;;;15.07;6.38;;;10.10;73.20;;;;;;6022802;23;20032;-82
2023/03/20 07:16:55;;;;;;;13.52;6.25;;;10.10;71.80;;;;;;6014942;23;20545;-82
2023/03/20 07:19:23;;;;;;;12.77;5.57;;;10.10;71.50;;;;;;6022095;23;20056;-82
2023/03/20 07:22:00;;;;;;;11.38;5.00;;;10.20;72.00;;;;;;6048923;23;20038;-82
2023/03/20 07:24:37;;;;;;;13.45;5.50;;;10.50;71.20;;;;;;6078173;23;20027;-82
2023/03/20 07:27:05;;;;;;;10.10;5.13;;;10.60;70.60;;;;;;6022459;23;20020;-81
2023/03/20 07:29:34;;;;;;;13.63;5.18;;;10.70;70.20;;;;;;6009112;23;20032;-81
2023/03/20 07:32:04;;;;;;;9.73;5.03;;;10.00;68.60;;;;;;5991001;23;20027;-81
2023/03/20 07:35:02;;;;;;;10.50;4.72;;;10.80;69.60;;;;;;5982966;23;20319;-82
2023/03/20 07:37:33;;;;;;;9.02;4.00;;;11.10;68.70;;;;;;5996071;23;20027;-80
2023/03/20 07:40:04;;;;;;;9.32;4.53;;;11.30;68.40;;;;;;5990907;23;20078;-81
2023/03/20 07:42:44;;;;;;;8.93;4.85;;;11.20;67.80;;;;;;5988368;23;20039;-82
2023/03/20 07:45:17;;;;;;;9.13;4.43;;;11.30;67.90;;;;;;5989813;23;20047;-81
2023/03/20 07:47:47;;;;;;;13.73;5.07;;;11.40;67.30;;;;;;6014568;23;20024;-81
2023/03/20 07:50:15;;;;;;;9.82;4.72;;;11.50;67.30;;;;;;5997070;23;20088;-81
2023/03/20 07:52:50;;;;;;;10.43;4.32;;;11.60;67.70;;;;;;6024853;23;20050;-82
2023/03/20 07:55:23;;;;;;;10.43;4.63;;;11.60;67.20;;;;;;6041201;23;20051;-81
2023/03/20 07:57:55;;;;;;;9.45;4.22;;;11.80;66.90;;;;;;6048089;23;20035;-82
2023/03/20 08:00:25;;;;;;;9.45;3.83;;;11.90;67.10;;;;;;6015739;23;20023;-80
2023/03/20 08:02:55;;;;;;;8.25;4.10;;;12.00;66.70;;;;;;6020203;23;20007;-81
2023/03/20 08:05:24;;;;;;;10.15;4.63;;;12.00;66.80;;;;;;6040067;23;20051;-81
2023/03/20 08:07:51;;;;;;;8.10;4.22;;;12.10;66.90;;;;;;6034683;23;20045;-81
2023/03/20 08:10:19;;;;;;;8.57;4.10;;;12.20;66.80;;;;;;6018761;23;20051;-80
2023/03/20 08:12:48;;;;;;;9.90;4.20;;;12.30;66.10;;;;;;6045738;23;20018;-80
2023/03/20 08:15:24;;;;;;;8.73;3.78;;;12.30;66.20;;;;;;6062565;23;20021;-81
2023/03/20 08:17:51;;;;;;;7.68;3.90;;;12.30;65.80;;;;;;6091155;23;20019;-80
2023/03/20 08:20:18;;;;;;;8.40;3.75;;;12.60;65.80;;;;;;6063026;23;20089;-80
2023/03/20 08:22:48;;;;;;;10.27;4.13;;;12.50;64.60;;;;;;6070494;23;20050;-81
2023/03/20 08:25:16;;;;;;;12.57;3.72;;;12.60;64.70;;;;;;6064348;23;20022;-81
2023/03/20 08:27:44;;;;;;;7.63;3.58;;;12.50;63.70;;;;;;6041431;23;20214;-82
2023/03/20 08:30:46;;;;;;;8.85;3.20;;;12.70;63.90;;;;;;6025227;23;20178;-81
2023/03/20 08:33:16;;;;;;;9.15;3.20;;;13.10;64.00;;;;;;6018344;23;20396;-81
2023/03/20 08:39:20;;;;;;;8.60;3.30;;;13.30;63.40;;;;;;6113938;23;20107;-81
2023/03/20 08:41:48;;;;;;;7.68;3.35;;;13.40;62.70;;;;;;6189449;23;20086;-82
2023/03/20 08:44:16;;;;;;;7.72;3.28;;;13.40;62.60;;;;;;6166821;23;20024;-81
2023/03/20 08:46:45;;;;;;;8.77;3.63;;;13.40;63.00;;;;;;6187983;23;20052;-79
2023/03/20 08:49:12;;;;;;;8.90;5.00;;;13.50;62.90;;;;;;6162760;23;20431;-81
2023/03/20 08:51:44;;;;;;;6.93;3.85;;;12.70;61.60;;;;;;6213174;23;20028;-82
2023/03/20 08:54:30;;;;;;;6.43;3.28;;;13.70;62.80;;;;;;6188236;23;20047;-82
2023/03/20 08:57:16;;;;;;;8.93;3.55;;;13.90;61.70;;;;;;6093615;23;20016;-82
2023/03/20 08:59:43;;;;;;;12.23;4.05;;;13.90;61.00;;;;;;6069968;23;20387;-80
2023/03/20 09:02:13;;;;;;;9.40;3.80;;;14.20;61.90;;;;;;6045194;23;20058;-81
2023/03/20 09:04:44;;;;;;;9.55;4.60;;;14.20;60.50;;;;;;6055724;23;20101;-82
2023/03/20 09:07:11;;;;;;;6.43;3.13;;;14.30;60.60;;;;;;6064174;23;20053;-82
2023/03/20 09:09:41;;;;;;;8.27;3.25;;;14.20;60.60;;;;;;6066537;23;20030;-81
2023/03/20 09:12:13;;;;;;;8.13;3.10;;;14.30;60.00;;;;;;6050386;23;20022;-79
2023/03/20 09:14:41;;;;;;;8.18;3.72;;;14.30;60.60;;;;;;6033776;23;20097;-80
2023/03/20 09:17:08;;;;;;;7.75;3.40;;;14.40;60.30;;;;;;6080730;23;20015;-81
2023/03/20 09:19:44;;;;;;;9.55;3.17;;;14.10;60.60;;;;;;6052060;23;20447;-81
2023/03/20 09:22:17;;;;;;;8.32;2.85;;;14.50;60.20;;;;;;6049126;23;20018;-82
2023/03/20 09:24:46;;;;;;;6.90;3.20;;;14.50;60.20;;;;;;6044713;23;20628;-81
2023/03/20 09:27:15;;;;;;;7.57;3.25;;;14.90;60.50;;;;;;6044994;23;20022;-81
2023/03/20 09:29:42;;;;;;;8.52;3.53;;;15.00;59.60;;;;;;6084622;23;20058;-81
2023/03/20 09:32:12;;;;;;;7.85;3.35;;;15.00;59.50;;;;;;6084472;23;20081;-80
2023/03/20 09:34:39;;;;;;;7.10;3.05;;;15.20;58.80;;;;;;6070919;23;20629;-81
2023/03/20 09:37:07;;;;;;;6.13;3.00;;;15.10;58.90;;;;;;6071268;23;20026;-81
2023/03/20 09:43:47;;;;;;;8.55;3.70;;;15.50;58.40;;;;;;6103790;23;20044;31
2023/03/20 09:46:32;;;;;;;6.90;2.85;;;15.70;58.80;;;;;;6013518;23;20058;-82
2023/03/20 09:49:33;;;;;;;6.32;3.25;;;15.50;57.60;;;;;;6017144;23;20468;-80
2023/03/20 09:52:29;;;;;;;11.15;3.47;;;15.40;57.40;;;;;;6007605;23;20522;-81
2023/03/20 09:55:11;;;;;;;6.00;2.72;;;15.40;57.80;;;;;;6025864;23;20020;-81
2023/03/20 09:57:43;;;;;;;8.48;3.35;;;15.60;58.40;;;;;;5995701;23;20039;-82
2023/03/20 10:00:17;;;;;;;8.07;3.20;;;16.60;58.30;;;;;;6008000;23;20034;-81
2023/03/20 10:03:14;;;;;;;7.63;4.00;;;15.60;57.40;;;;;;6007389;23;20023;-81
2023/03/20 10:05:53;;;;;;;7.10;3.20;;;15.60;57.70;;;;;;6004740;23;20476;-81
2023/03/20 10:08:24;;;;;;;8.85;3.08;;;15.30;56.90;;;;;;5985957;23;20050;-81
2023/03/20 10:10:58;;;;;;;10.43;4.30;;;15.70;57.20;;;;;;6007306;23;20108;-80
2023/03/20 10:13:51;;;;;;;9.88;3.83;;;15.80;57.20;;;;;;5986795;23;20124;-80
2023/03/20 10:16:43;;;;;;;7.88;4.20;;;15.60;56.70;;;;;;6006959;23;20030;-80
2023/03/20 10:19:19;;;;;;;9.03;3.80;;;15.80;57.10;;;;;;5977163;23;20051;-81
2023/03/20 10:22:24;;;;;;;8.82;4.88;;;15.90;57.30;;;;;;6004156;23;20453;-80
2023/03/20 10:25:01;;;;;;;8.90;4.00;;;16.10;56.30;;;;;;5985314;23;20046;-81
2023/03/20 10:27:45;;;;;;;8.52;3.80;;;16.00;56.30;;;;;;6004046;23;20024;-81
2023/03/20 10:30:40;;;;;;;7.22;3.67;;;15.90;55.60;;;;;;5999692;23;20034;-82
2023/03/20 10:33:26;;;;;;;7.55;3.45;;;16.20;56.70;;;;;;5981301;23;20032;-82
2023/03/20 10:36:17;;;;;;;10.15;4.95;;;16.50;56.30;;;;;;5999835;23;20051;-81
2023/03/20 10:39:16;;;;;;;8.60;3.95;;;16.40;55.40;;;;;;6016809;23;20038;-79
2023/03/20 10:41:55;;;;;;;8.35;3.65;;;16.40;55.00;;;;;;5984845;23;20115;-80
2023/03/20 10:44:42;;;;;;;11.38;4.28;;;16.30;54.50;;;;;;6004945;23;20034;-82
2023/03/20 10:47:13;;;;;;;9.10;4.25;;;16.40;55.00;;;;;;6003703;23;20020;-81
2023/03/20 10:49:55;;;;;;;9.45;4.55;;;16.60;54.50;;;;;;6027484;23;20027;-81
2023/03/20 10:52:29;;;;;;;9.88;3.83;;;16.30;54.50;;;;;;6021774;23;20106;-81
2023/03/20 10:55:02;;;;;;;6.80;3.25;;;16.40;54.20;;;;;;6020080;23;20405;-81
2023/03/20 10:57:34;;;;;;;7.25;3.53;;;16.60;54.50;;;;;;6024292;23;20020;-81
2023/03/20 11:00:04;;;;;;;7.82;4.07;;;16.70;54.10;;;;;;6019039;23;20405;-81
2023/03/20 11:02:35;;;;;;;7.90;3.58;;;16.70;53.90;;;;;;6005250;23;20073;-81
2023/03/20 11:05:21;;;;;;;6.93;3.28;;;16.60;54.00;;;;;;6002063;23;20468;-81
2023/03/20 11:07:58;;;;;;;7.95;4.05;;;16.70;54.20;;;;;;6020026;23;20060;-81
2023/03/20 11:10:26;;;;;;;8.85;3.75;;;16.80;54.40;;;;;;5997706;23;20025;-81
2023/03/20 11:12:54;;;;;;;7.38;3.65;;;16.90;54.00;;;;;;5997180;23;20560;-82
2023/03/20 11:15:31;;;;;;;7.93;4.00;;;17.00;53.90;;;;;;5958887;23;20032;-83
2023/03/20 11:18:00;;;;;;;8.18;3.55;;;16.90;53.90;;;;;;6003291;23;20178;-81
2023/03/20 11:20:40;;;;;;;6.30;3.85;;;16.90;53.80;;;;;;6012282;23;20457;-81
2023/03/20 11:23:15;;;;;;;7.90;3.40;;;16.70;53.40;;;;;;6006027;23;20351;-81
2023/03/20 11:25:49;;;;;;;7.93;3.92;;;16.90;54.20;;;;;;6009563;23;20409;-83
2023/03/20 11:28:29;;;;;;;7.82;4.05;;;16.50;54.10;;;;;;6030105;23;20051;-81
2023/03/20 11:31:01;;;;;;;8.05;4.28;;;17.00;54.50;;;;;;6000768;23;20034;-82
2023/03/20 11:33:36;;;;;;;9.40;5.15;;;16.90;54.20;;;;;;6004299;23;20136;-81
2023/03/20 11:36:19;;;;;;;8.85;4.15;;;16.70;54.20;;;;;;6007875;23;20055;-81
2023/03/20 11:38:48;;;;;;;8.18;4.47;;;16.50;54.60;;;;;;6033716;23;20023;-80
2023/03/20 11:41:20;;;;;;;8.63;4.13;;;16.80;54.80;;;;;;6007253;23;20046;-81
2023/03/20 11:43:48;;;;;;;7.20;4.30;;;16.90;54.70;;;;;;6029719;23;20193;-82
2023/03/20 11:46:15;;;;;;;11.25;5.32;;;17.00;54.80;;;;;;6001929;23;20030;-81
2023/03/20 11:48:44;;;;;;;18.92;8.65;;;16.90;54.20;;;;;;5975074;23;20055;-81
2023/03/20 11:51:23;;;;;;;7.80;4.22;;;16.80;54.60;;;;;;6022922;23;20118;-81
2023/03/20 11:54:01;;;;;;;9.90;5.80;;;16.90;54.30;;;;;;6007404;23;20031;-81
2023/03/20 11:56:34;;;;;;;11.15;5.18;;;16.70;54.60;;;;;;5997486;23;20138;-81
2023/03/20 11:59:17;;;;;;;;;;;17.00;55.40;;;;;;5997252;23;20027;-81
2023/03/20 12:01:53;;;;;;;7.85;4.57;;;16.90;54.70;;;;;;6024590;23;19981;-81
2023/03/20 12:04:41;;;;;;;10.30;4.80;;;17.00;55.60;;;;;;5979029;23;20110;-81
2023/03/20 12:07:14;;;;;;;9.23;5.60;;;17.00;54.90;;;;;;5998532;23;20160;-82
2023/03/20 12:09:48;;;;;;;16.48;9.40;;;16.90;54.40;;;;;;5999715;23;20026;-81
2023/03/20 12:12:42;;;;;;;10.32;5.22;;;17.00;55.00;;;;;;6022449;23;20100;-81
2023/03/20 12:15:12;;;;;;;12.73;6.18;;;16.90;54.30;;;;;;6023400;23;20028;-81
2023/03/20 12:17:39;;;;;;;9.15;4.90;;;16.90;54.60;;;;;;5976736;23;20019;-81
2023/03/20 12:20:42;;;;;;;9.57;5.32;;;17.00;55.00;;;;;;5996834;23;20438;-81
2023/03/20 12:23:11;;;;;;;9.50;4.07;;;17.00;55.40;;;;;;6025589;23;20042;-81
2023/03/20 12:26:03;;;;;;;8.77;4.53;;;17.10;55.40;;;;;;6001843;23;20352;-81
2023/03/20 12:29:00;;;;;;;10.93;4.50;;;17.30;55.00;;;;;;5979054;23;20468;-81
2023/03/20 12:31:44;;;;;;;12.18;4.43;;;17.00;54.60;;;;;;5993374;23;20023;-81
2023/03/20 12:34:31;;;;;;;8.70;4.57;;;16.90;54.80;;;;;;6004157;23;20477;-81
2023/03/20 12:36:59;;;;;;;8.68;5.53;;;17.00;54.90;;;;;;6001577;23;20359;-81
2023/03/20 12:39:40;;;;;;;9.40;4.85;;;16.00;54.80;;;;;;6024771;23;20027;-81
2023/03/20 12:42:08;;;;;;;10.05;4.95;;;17.10;55.20;;;;;;6013365;23;20038;-80
2023/03/20 12:45:18;;;;;;;10.02;4.78;;;17.10;55.40;;;;;;5995280;23;20134;-80
2023/03/20 12:48:04;;;;;;;10.57;4.35;;;17.20;55.00;;;;;;5974023;23;20382;-81
2023/03/20 12:50:38;;;;;;;10.32;5.45;;;17.00;55.50;;;;;;5998669;23;20023;-81
2023/03/20 12:53:26;;;;;;;10.73;5.15;;;17.20;55.20;;;;;;5995788;23;20465;-78
2023/03/20 12:55:59;;;;;;;10.82;5.35;;;17.00;55.70;;;;;;5975928;23;20437;-79
2023/03/20 12:58:47;;;;;;;9.88;5.32;;;17.20;55.30;;;;;;5996149;23;20023;-79
2023/03/20 13:01:41;;;;;;;13.77;6.13;;;17.00;55.70;;;;;;5971377;23;20028;-80
2023/03/20 13:04:26;;;;;;;20.75;13.40;;;17.10;55.30;;;;;;5994401;23;20042;-78
2023/03/20 13:06:59;;;;;;;15.25;8.73;;;17.20;55.40;;;;;;5968749;23;20028;-80
2023/03/20 13:09:47;;;;;;;10.23;5.22;;;17.10;55.60;;;;;;5994887;23;20028;-81
2023/03/20 13:12:21;;;;;;;16.85;10.05;;;17.20;55.00;;;;;;5994011;23;20066;-81
2023/03/20 13:25:38;;;;;;;29.38;15.57;;;17.20;54.80;;;;;;6174258;22;1529013;-80
2023/03/20 13:28:20;;;;;;;15.95;7.60;;;17.40;56.10;;;;;;6219667;23;20044;-80
2023/03/20 13:33:51;;;;;;;11.30;5.75;;;17.50;54.90;;;;;;6227057;22;20936;-80
2023/03/20 13:36:41;;;;;;;11.98;5.53;;;17.50;54.60;;;;;;6223893;22;20069;-80
2023/03/20 13:39:21;;;;;;;10.98;5.75;;;17.50;55.30;;;;;;6268829;22;20024;-79
2023/03/20 13:41:49;;;;;;;12.00;5.93;;;17.60;54.50;;;;;;6264063;23;20023;-79
2023/03/20 13:44:19;;;;;;;9.80;5.20;;;17.50;54.70;;;;;;6273199;22;20050;-79
2023/03/20 13:47:19;;;;;;;9.90;5.38;;;17.40;55.10;;;;;;6258040;22;20004;-80
2023/03/20 13:50:30;;;;;;;12.95;5.60;;;17.40;55.20;;;;;;6220810;22;20019;-79
2023/03/20 13:53:31;;;;;;;10.48;5.85;;;17.40;55.50;;;;;;6158399;23;20401;-79